createdAt,value
2023-01-27T00:03:25.396Z,14.98
2023-01-27T00:08:30.485Z,15.98
2023-01-27T00:13:34.225Z,19.55
2023-01-27T00:18:38.336Z,18.30
2023-01-27T00:24:00.629Z,16.58
2023-01-27T00:29:04.506Z,17.63
2023-01-27T00:34:11.448Z,14.27
2023-01-27T00:39:15.752Z,15.23
2023-01-27T00:44:20.414Z,14.60
2023-01-27T00:49:24.794Z,20.98
2023-01-27T00:54:28.684Z,15.05
2023-01-27T00:59:33.205Z,22.42
2023-01-27T01:04:37.073Z,20.88
2023-01-27T01:09:41.954Z,11.13
2023-01-27T01:14:45.698Z,14.05
2023-01-27T01:19:50.722Z,17.27
2023-01-27T01:24:55.442Z,19.55
2023-01-27T01:29:59.621Z,18.42
2023-01-27T01:35:03.570Z,18.50
2023-01-27T01:40:09.265Z,22.15
2023-01-27T01:45:34.562Z,19.13
2023-01-27T01:50:41.797Z,13.80
2023-01-27T01:55:47.085Z,16.80
2023-01-27T02:00:51.177Z,16.02
2023-01-27T02:05:57.059Z,18.67
2023-01-27T02:11:00.957Z,17.75
2023-01-27T02:16:05.018Z,13.15
2023-01-27T02:21:09.864Z,16.13
2023-01-27T02:26:22.826Z,20.08
2023-01-27T02:31:26.934Z,20.67
2023-01-27T02:36:36.972Z,17.45
2023-01-27T02:41:46.899Z,19.90
2023-01-27T02:46:50.879Z,16.52
2023-01-27T02:51:54.743Z,21.08
2023-01-27T02:57:01.726Z,20.05
2023-01-27T03:02:08.244Z,18.90
2023-01-27T03:07:12.315Z,18.55
2023-01-27T03:12:22.402Z,25.63
2023-01-27T03:17:45.887Z,20.15
2023-01-27T03:22:51.306Z,18.38
2023-01-27T03:33:09.160Z,21.13
2023-01-27T03:38:50.974Z,17.92
2023-01-27T03:44:13.519Z,21.35
2023-01-27T03:49:17.391Z,20.95
2023-01-27T03:54:21.347Z,14.27
2023-01-27T03:59:24.969Z,22.90
2023-01-27T04:04:47.557Z,21.23
2023-01-27T04:09:52.761Z,21.42
2023-01-27T04:14:56.647Z,25.60
2023-01-27T04:20:00.697Z,17.25
2023-01-27T04:25:04.847Z,28.45
2023-01-27T04:30:09.537Z,13.05
2023-01-27T04:35:13.629Z,27.02
2023-01-27T04:40:17.552Z,17.98
2023-01-27T04:45:21.484Z,25.77
2023-01-27T04:50:25.179Z,26.75
2023-01-27T04:55:28.994Z,28.92
2023-01-27T05:00:33.388Z,31.10
2023-01-27T05:05:38.185Z,31.05
2023-01-27T05:10:45.885Z,24.52
2023-01-27T05:15:49.969Z,26.75
2023-01-27T05:20:53.937Z,28.92
2023-01-27T05:25:57.618Z,33.50
2023-01-27T05:31:10.959Z,28.80
2023-01-27T05:36:17.521Z,31.40
2023-01-27T05:41:22.761Z,33.75
2023-01-27T05:46:30.143Z,29.70
2023-01-27T05:51:40.509Z,35.55
2023-01-27T05:56:44.294Z,26.98
2023-01-27T06:01:48.301Z,31.88
2023-01-27T06:06:52.299Z,31.58
2023-01-27T06:11:56.157Z,30.88
2023-01-27T06:17:02.668Z,35.95
2023-01-27T06:22:06.299Z,36.22
2023-01-27T06:27:11.770Z,28.50
2023-01-27T06:32:15.553Z,29.40
2023-01-27T06:37:19.453Z,32.95
2023-01-27T06:42:23.442Z,36.35
2023-01-27T06:47:27.164Z,42.97
2023-01-27T06:52:31.110Z,30.67
2023-01-27T06:57:34.802Z,35.30
2023-01-27T07:02:38.768Z,32.63
2023-01-27T07:07:42.940Z,33.60
2023-01-27T07:12:46.760Z,38.05
2023-01-27T07:17:50.775Z,23.52
2023-01-27T07:22:54.501Z,34.92
2023-01-27T07:28:00.582Z,46.83
2023-01-27T07:33:13.810Z,31.80
2023-01-27T07:38:17.538Z,30.92
2023-01-27T07:43:21.557Z,35.53
2023-01-27T07:48:25.502Z,34.13
2023-01-27T07:53:29.348Z,40.38
2023-01-27T07:58:33.270Z,35.53
2023-01-27T08:03:37.518Z,37.40
2023-01-27T08:08:41.698Z,40.38
2023-01-27T08:13:45.493Z,40.88
2023-01-27T08:18:50.530Z,34.72
2023-01-27T08:23:54.690Z,41.42
2023-01-27T08:28:58.723Z,42.38
2023-01-27T08:34:02.829Z,35.60
2023-01-27T08:39:06.650Z,36.67
2023-01-27T08:44:10.660Z,43.38
2023-01-27T08:49:14.803Z,33.65
2023-01-27T08:54:18.684Z,39.53
2023-01-27T08:59:24.025Z,42.75
2023-01-27T09:04:29.943Z,38.90
2023-01-27T09:09:33.994Z,38.95
2023-01-27T09:14:38.676Z,34.47
2023-01-27T09:19:42.733Z,40.78
2023-01-27T09:24:46.467Z,43.03
2023-01-27T09:29:50.327Z,40.65
2023-01-27T09:34:54.498Z,41.17
2023-01-27T09:40:05.039Z,36.95
2023-01-27T09:45:31.715Z,41.72
2023-01-27T09:51:19.870Z,44.38
2023-01-27T10:01:42.519Z,40.95
2023-01-27T10:07:17.265Z,43.53
2023-01-27T10:12:23.911Z,44.30
2023-01-27T10:17:53.773Z,45.65
2023-01-27T10:23:11.177Z,39.75
2023-01-27T10:28:18.105Z,41.63
2023-01-27T10:33:28.705Z,42.30
2023-01-27T10:39:02.153Z,38.03
2023-01-27T10:44:31.796Z,43.28
2023-01-27T10:49:42.007Z,39.75
2023-01-27T10:55:00.497Z,46.05
2023-01-27T11:01:12.980Z,44.95
2023-01-27T11:05:53.986Z,44.70
2023-01-27T11:11:20.038Z,41.47
2023-01-27T11:16:26.635Z,51.85
2023-01-27T11:21:33.708Z,45.40
2023-01-27T11:26:45.500Z,41.23
2023-01-27T11:32:11.599Z,41.25
2023-01-27T11:37:20.520Z,45.13
2023-01-27T11:42:32.953Z,40.08
2023-01-27T11:47:40.726Z,41.67
2023-01-27T11:52:50.693Z,45.08
2023-01-27T11:58:15.401Z,44.17
2023-01-27T12:03:49.276Z,40.80
2023-01-27T12:08:53.339Z,37.30
2023-01-27T12:14:07.753Z,43.55
2023-01-27T12:19:36.460Z,46.80
2023-01-27T12:24:51.022Z,41.58
2023-01-27T12:29:59.310Z,35.92
2023-01-27T12:35:03.767Z,37.97
2023-01-27T12:40:18.373Z,43.55
2023-01-27T12:45:25.955Z,36.00
2023-01-27T12:50:35.929Z,40.65
2023-01-27T12:55:43.022Z,40.25
2023-01-27T13:00:47.173Z,42.28
2023-01-27T13:05:56.285Z,35.55
2023-01-27T13:11:03.218Z,37.90
2023-01-27T13:16:31.673Z,37.95
2023-01-27T13:21:38.919Z,34.65
2023-01-27T13:26:43.351Z,40.70
2023-01-27T13:32:07.755Z,36.47
2023-01-27T13:37:33.801Z,38.58
2023-01-27T13:42:57.535Z,35.17
2023-01-27T13:48:19.250Z,37.13
2023-01-27T13:53:23.207Z,31.83
2023-01-27T13:58:32.704Z,34.83
2023-01-27T14:03:46.863Z,43.20
2023-01-27T14:09:24.355Z,35.33
2023-01-27T14:14:34.052Z,39.50
2023-01-27T14:20:01.719Z,33.55
2023-01-27T14:25:25.151Z,41.10
2023-01-27T14:30:41.259Z,39.45
2023-01-27T14:35:52.392Z,30.02
2023-01-27T14:41:21.127Z,32.13
2023-01-27T14:46:37.045Z,33.30
2023-01-27T14:51:48.558Z,35.63
2023-01-27T14:57:10.380Z,38.78
2023-01-27T15:02:44.998Z,34.70
2023-01-27T15:08:17.230Z,35.72
2023-01-27T15:13:24.815Z,41.20
2023-01-27T15:18:43.468Z,34.15
2023-01-27T15:24:26.342Z,33.60
2023-01-27T15:29:32.618Z,34.33
2023-01-27T15:34:36.401Z,36.17
2023-01-27T15:40:04.054Z,40.53
2023-01-27T15:45:27.706Z,37.22
2023-01-27T15:50:34.149Z,32.00
2023-01-27T15:55:39.467Z,32.50
2023-01-27T16:00:51.379Z,34.15
2023-01-27T16:06:10.688Z,37.28
2023-01-27T16:11:30.221Z,40.17
2023-01-27T16:16:36.941Z,31.98
2023-01-27T16:21:59.536Z,32.85
2023-01-27T16:27:44.030Z,33.83
2023-01-27T16:33:08.218Z,35.53
2023-01-27T16:38:17.828Z,35.65
2023-01-27T16:43:33.378Z,33.92
2023-01-27T16:48:49.744Z,34.20
2023-01-27T16:54:01.031Z,30.40
2023-01-27T16:59:21.971Z,31.85
2023-01-27T17:04:28.205Z,39.42
2023-01-27T17:09:36.026Z,34.85
2023-01-27T17:14:47.071Z,35.92
2023-01-27T17:19:54.088Z,34.45
2023-01-27T17:25:04.676Z,37.95
2023-01-27T17:30:11.296Z,37.30
2023-01-27T17:35:27.255Z,33.70
2023-01-27T17:40:40.344Z,34.17
2023-01-27T17:45:44.476Z,33.60
2023-01-27T17:50:48.188Z,31.70
2023-01-27T17:55:54.388Z,35.83
2023-01-27T18:00:58.200Z,32.22
2023-01-27T18:06:05.179Z,32.25
2023-01-27T18:11:20.707Z,32.03
2023-01-27T18:16:25.304Z,33.20
2023-01-27T18:21:29.172Z,34.50
2023-01-27T18:26:39.202Z,35.05
2023-01-27T18:31:49.017Z,32.60
2023-01-27T18:36:59.968Z,36.47
2023-01-27T18:42:10.741Z,33.00
2023-01-27T18:47:20.461Z,31.90
2023-01-27T18:52:24.986Z,33.50
2023-01-27T18:57:29.345Z,39.13
2023-01-27T19:02:33.352Z,36.10
2023-01-27T19:07:37.702Z,27.55
2023-01-27T19:12:41.640Z,34.47
2023-01-27T19:17:46.865Z,34.83
2023-01-27T19:22:52.235Z,33.45
2023-01-27T19:28:03.407Z,28.02
2023-01-27T19:33:22.614Z,31.33
2023-01-27T19:38:28.287Z,27.42
2023-01-27T19:43:33.168Z,33.92
2023-01-27T19:48:36.805Z,27.23
2023-01-27T19:53:40.935Z,37.28
2023-01-27T19:58:54.439Z,33.90
2023-01-27T20:03:58.278Z,28.85
2023-01-27T20:09:04.402Z,29.42
2023-01-27T20:14:19.888Z,32.67
2023-01-27T20:19:23.769Z,27.50
2023-01-27T20:24:27.858Z,36.20
2023-01-27T20:29:34.775Z,31.02
2023-01-27T20:34:39.125Z,29.80
2023-01-27T20:39:42.961Z,30.95
2023-01-27T20:44:46.660Z,32.38
2023-01-27T20:49:50.574Z,30.17
2023-01-27T20:54:54.837Z,30.23
2023-01-27T21:00:03.188Z,29.25
2023-01-27T21:05:09.019Z,32.00
2023-01-27T21:10:13.253Z,34.33
2023-01-27T21:15:17.215Z,29.45
2023-01-27T21:20:21.101Z,29.42
2023-01-27T21:25:25.136Z,31.23
2023-01-27T21:30:30.576Z,32.05
2023-01-27T21:35:34.711Z,32.50
2023-01-27T21:40:40.883Z,34.20
2023-01-27T21:45:44.866Z,32.78
2023-01-27T21:50:52.393Z,28.05
2023-01-27T21:55:56.239Z,24.42
2023-01-27T22:01:06.505Z,32.17
2023-01-27T22:06:11.131Z,30.35
2023-01-27T22:11:14.894Z,26.85
2023-01-27T22:16:19.155Z,30.40
2023-01-27T22:21:23.128Z,32.85
2023-01-27T22:26:26.954Z,31.63
2023-01-27T22:31:31.011Z,32.20
2023-01-27T22:36:35.082Z,26.88
2023-01-27T22:41:39.124Z,31.48
2023-01-27T22:46:43.598Z,27.33
2023-01-27T22:51:49.057Z,30.70
2023-01-27T22:56:52.956Z,29.33
2023-01-27T23:01:56.754Z,33.30
2023-01-27T23:07:00.645Z,31.50
2023-01-27T23:12:04.768Z,24.50
2023-01-27T23:17:08.784Z,24.25
2023-01-27T23:22:12.799Z,34.03
2023-01-27T23:27:17.525Z,30.67
2023-01-27T23:32:21.608Z,33.78
2023-01-27T23:37:25.496Z,25.88
2023-01-27T23:42:29.330Z,33.58
2023-01-27T23:47:33.352Z,32.83
2023-01-27T23:52:37.173Z,34.50
2023-01-27T23:57:41.708Z,36.13
